Time;durP1;ratioP1;P1;durP2;ratioP2;P2;SDS_P1;SDS_P2;PMS_P1;PMS_P2;Temp;Humidity;BMP_temperature;BMP_pressure;BME280_temperature;BME280_humidity;BME280_pressure;Samples;Min_cycle;Max_cycle;Signal;HPM_P1;HPM_P2
2023/06/07 00:02:03;;;;;;;;;;;;;;;28.73;78.25;99184.63;4987889;28;19921;-53
2023/06/07 00:04:30;;;;;;;;;;;;;;;28.90;81.33;99194.28;4994024;28;20048;-51
2023/06/07 00:07:00;;;;;;;;;;;;;;;29.32;80.14;99187.25;4994974;28;19918;-54
2023/06/07 00:09:25;;;;;;;;;;;;;;;29.57;78.76;99175.63;4995616;28;19918;-53
2023/06/07 00:11:51;;;;;;;;;;;;;;;29.17;80.39;99190.56;4993311;28;19917;-53
2023/06/07 00:14:16;;;;;;;;;;;;;;;28.84;80.53;99200.22;4986293;28;19922;-52
2023/06/07 00:16:44;;;;;;;;;;;;;;;29.21;79.59;99190.22;4988618;28;19925;-51
2023/06/07 00:19:11;;;;;;;;;;;;;;;29.06;79.38;99193.50;4990092;28;19917;-54
2023/06/07 00:21:36;;;;;;;;;;;;;;;28.46;82.80;99214.81;4997083;28;20457;-51
2023/06/07 00:24:01;;;;;;;;;;;;;;;28.74;81.36;99200.38;5000412;28;20016;-50
2023/06/07 00:26:27;;;;;;;;;;;;;;;28.75;81.81;99207.31;4984820;28;19926;-51
2023/06/07 00:28:52;;;;;;;;;;;;;;;29.31;79.89;99186.44;4994188;28;19914;-50
2023/06/07 00:31:17;;;;;;;;;;;;;;;28.69;81.83;99207.13;4991169;28;19924;-53
2023/06/07 00:33:42;;;;;;;;;;;;;;;28.88;82.63;99203.41;4992506;28;20016;-50
2023/06/07 00:36:07;;;;;;;;;;;;;;;28.67;80.29;99198.50;4999300;28;20004;-53
2023/06/07 00:38:33;;;;;;;;;;;;;;;28.47;84.21;99208.56;4993538;28;19997;-42
2023/06/07 00:40:58;;;;;;;;;;;;;;;29.01;81.46;99190.47;4987254;28;19953;-42
2023/06/07 00:43:24;;;;;;;;;;;;;;;28.88;81.26;99190.97;4993250;28;20866;-42
2023/06/07 00:45:50;;;;;;;;;;;;;;;28.77;81.20;99189.44;4988868;28;20000;-42
2023/06/07 00:48:15;;;;;;;;;;;;;;;28.11;84.70;99219.25;4988686;28;19921;-42
2023/06/07 00:50:40;;;;;;;;;;;;;;;27.84;84.90;99204.34;4995766;28;19918;-42
2023/06/07 00:53:05;;;;;;;;;;;;;;;27.98;83.53;99200.31;4989650;28;20433;-42
2023/06/07 00:55:31;;;;;;;;;;;;;;;27.29;84.49;99208.00;4999915;28;19917;-42
2023/06/07 00:57:56;;;;;;;;;;;;;;;28.15;82.99;99187.00;4990961;28;19917;-42
2023/06/07 01:00:21;;;;;;;;;;;;;;;27.36;85.88;99209.06;4987201;28;19917;-42
2023/06/07 01:02:47;;;;;;;;;;;;;;;27.93;85.75;99198.94;4987830;28;19921;-42
2023/06/07 01:05:12;;;;;;;;;;;;;;;26.97;85.72;99214.59;4985094;28;19924;-42
2023/06/07 01:07:38;;;;;;;;;;;;;;;26.38;89.30;99223.78;4994334;28;19917;-42
2023/06/07 01:10:05;;;;;;;;;;;;;;;26.05;90.77;99241.81;4993522;28;19917;-42
2023/06/07 01:12:30;;;;;;;;;;;;;;;26.04;92.18;99248.03;4986195;28;19925;-42
2023/06/07 01:14:55;;;;;;;;;;;;;;;26.40;89.60;99227.09;4985801;28;20753;-42
2023/06/07 01:17:26;;;;;;;;;;;;;;;27.72;86.92;99193.16;4986532;28;20045;-42
2023/06/07 01:19:53;;;;;;;;;;;;;;;27.18;87.08;99208.19;4988930;28;19967;-42
2023/06/07 01:22:19;;;;;;;;;;;;;;;26.61;86.60;99211.88;4991169;28;20008;-42
2023/06/07 01:24:47;;;;;;;;;;;;;;;25.67;92.64;99249.56;4987853;28;19921;-42
2023/06/07 01:27:12;;;;;;;;;;;;;;;26.24;91.32;99223.25;4969538;28;20381;-42
2023/06/07 01:29:38;;;;;;;;;;;;;;;25.97;92.09;99231.94;4994482;28;19918;-42
2023/06/07 01:32:04;;;;;;;;;;;;;;;26.70;90.32;99208.34;4984178;28;20016;-42
2023/06/07 01:34:30;;;;;;;;;;;;;;;26.34;91.92;99214.47;4996036;28;20297;-42
2023/06/07 01:36:55;;;;;;;;;;;;;;;25.65;92.36;99234.88;4993087;28;19924;-42
2023/06/07 01:39:20;;;;;;;;;;;;;;;27.13;88.15;99188.31;4990078;28;19929;-42
2023/06/07 01:41:46;;;;;;;;;;;;;;;26.28;90.73;99214.06;4994188;28;19918;-42
2023/06/07 01:44:12;;;;;;;;;;;;;;;26.97;86.52;99176.78;4992409;28;19928;-42
2023/06/07 01:46:37;;;;;;;;;;;;;;;27.18;87.57;99189.69;4985243;28;20444;-42
2023/06/07 01:49:02;;;;;;;;;;;;;;;25.53;90.65;99209.63;4995718;28;19921;-42
2023/06/07 01:51:28;;;;;;;;;;;;;;;25.67;92.16;99209.19;4996361;28;19964;-42
2023/06/07 01:53:53;;;;;;;;;;;;;;;26.84;86.84;99166.56;4983686;28;19971;-42
2023/06/07 01:56:38;;;;;;;;;;;;;;;26.31;88.22;99185.72;4996487;28;19941;-42
2023/06/07 01:59:09;;;;;;;;;;;;;;;26.14;89.30;99189.94;4986414;28;19920;-42
2023/06/07 02:01:42;;;;;;;;;;;;;;;26.37;88.99;99182.50;4987357;28;19961;-42
2023/06/07 02:04:08;;;;;;;;;;;;;;;26.11;88.92;99177.84;4990193;28;19921;-42
2023/06/07 02:06:33;;;;;;;;;;;;;;;27.13;87.06;99161.88;4984031;28;20299;-42
2023/06/07 02:09:03;;;;;;;;;;;;;;;27.20;85.46;99159.50;4988301;28;20314;-42
2023/06/07 02:11:28;;;;;;;;;;;;;;;27.04;85.26;99168.09;4980540;28;19921;-42
2023/06/07 02:13:54;;;;;;;;;;;;;;;27.61;82.94;99141.31;4993398;28;19944;-42
2023/06/07 02:16:37;;;;;;;;;;;;;;;27.24;82.32;99152.94;4995824;28;19922;-42
2023/06/07 02:19:06;;;;;;;;;;;;;;;26.42;88.74;99198.75;4982511;28;20298;-42
2023/06/07 02:21:32;;;;;;;;;;;;;;;26.06;90.79;99191.50;4996976;28;19921;-42
2023/06/07 02:23:57;;;;;;;;;;;;;;;25.80;91.21;99193.91;4989924;28;19933;-42
2023/06/07 02:26:24;;;;;;;;;;;;;;;25.77;89.45;99188.91;4989762;28;19928;-42
2023/06/07 02:28:49;;;;;;;;;;;;;;;25.08;94.31;99225.91;4994792;28;19917;-42
2023/06/07 02:31:14;;;;;;;;;;;;;;;25.89;90.77;99184.34;4986020;28;19917;-42
2023/06/07 02:33:39;;;;;;;;;;;;;;;24.83;94.65;99223.63;4986583;28;20004;-42
2023/06/07 02:36:05;;;;;;;;;;;;;;;24.60;96.38;99219.56;4997659;28;20593;-42
2023/06/07 02:38:30;;;;;;;;;;;;;;;23.95;100.00;99240.81;4980745;28;20441;-42
2023/06/07 02:40:55;;;;;;;;;;;;;;;24.00;100.00;99243.06;4994206;28;20033;-42
2023/06/07 02:43:20;;;;;;;;;;;;;;;24.48;100.00;99226.72;4990322;28;20008;-42
2023/06/07 02:45:46;;;;;;;;;;;;;;;24.30;100.00;99230.91;4989028;28;19926;-42
2023/06/07 02:48:12;;;;;;;;;;;;;;;24.29;100.00;99230.06;4998948;28;19925;-42
2023/06/07 02:50:38;;;;;;;;;;;;;;;24.68;99.31;99211.84;4988176;28;20396;-42
2023/06/07 02:53:05;;;;;;;;;;;;;;;23.57;100.00;99250.03;4984169;28;19917;-42
2023/06/07 02:55:31;;;;;;;;;;;;;;;25.21;100.00;99213.34;4994475;28;19965;-42
2023/06/07 02:57:56;;;;;;;;;;;;;;;26.31;96.09;99185.72;4984684;28;19926;-42
2023/06/07 03:00:21;;;;;;;;;;;;;;;25.18;98.59;99229.38;4992270;28;19914;-42
2023/06/07 03:02:47;;;;;;;;;;;;;;;26.34;97.30;99203.91;4994355;28;19918;-42
2023/06/07 03:05:12;;;;;;;;;;;;;;;26.95;93.04;99184.84;4984547;28;19921;-42
2023/06/07 03:07:40;;;;;;;;;;;;;;;25.99;95.42;99213.31;4992342;28;19961;-42
2023/06/07 03:10:06;;;;;;;;;;;;;;;26.69;94.42;99195.31;4984612;28;20012;-42
2023/06/07 03:12:31;;;;;;;;;;;;;;;24.91;100.00;99246.69;4984298;28;19996;-42
2023/06/07 03:14:56;;;;;;;;;;;;;;;25.79;100.00;99218.59;4997818;28;19924;-42
2023/06/07 03:17:22;;;;;;;;;;;;;;;25.87;100.00;99218.75;4981834;28;20268;-42
2023/06/07 03:19:47;;;;;;;;;;;;;;;25.97;98.17;99210.00;4986716;28;20467;-42
2023/06/07 03:22:12;;;;;;;;;;;;;;;24.87;100.00;99232.13;4991415;28;19925;-42
2023/06/07 03:24:38;;;;;;;;;;;;;;;25.75;99.84;99222.50;4987321;28;19917;-42
2023/06/07 03:27:03;;;;;;;;;;;;;;;25.96;98.69;99208.34;4994845;28;19964;-42
2023/06/07 03:29:30;;;;;;;;;;;;;;;26.26;97.89;99200.19;4993418;28;19929;-42
2023/06/07 03:31:55;;;;;;;;;;;;;;;26.19;97.71;99214.13;4994904;28;19964;-42
2023/06/07 03:34:21;;;;;;;;;;;;;;;24.83;100.00;99241.25;5000988;28;19926;-42
2023/06/07 03:36:47;;;;;;;;;;;;;;;25.94;97.64;99205.84;4990070;28;20232;-42
2023/06/07 03:39:12;;;;;;;;;;;;;;;25.71;98.25;99210.56;4988057;28;19917;-42
2023/06/07 03:41:38;;;;;;;;;;;;;;;26.54;96.06;99194.09;4992031;28;19924;-42
2023/06/07 03:44:03;;;;;;;;;;;;;;;26.49;95.53;99199.81;4989543;28;19917;-42
2023/06/07 03:46:28;;;;;;;;;;;;;;;26.20;95.62;99192.00;4995152;28;19926;-42
2023/06/07 03:48:53;;;;;;;;;;;;;;;26.63;95.20;99196.72;5000625;28;19964;-42
2023/06/07 03:51:18;;;;;;;;;;;;;;;26.00;96.92;99220.25;4987205;28;19964;-42
2023/06/07 03:53:44;;;;;;;;;;;;;;;25.98;98.06;99215.13;4999479;28;19952;-42
2023/06/07 03:56:09;;;;;;;;;;;;;;;24.59;100.00;99250.31;4990044;28;19945;-42
2023/06/07 03:58:35;;;;;;;;;;;;;;;25.93;99.65;99198.06;4990902;28;19959;-42
2023/06/07 04:01:01;;;;;;;;;;;;;;;26.53;95.36;99181.88;5003322;28;20277;-42
2023/06/07 04:03:27;;;;;;;;;;;;;;;26.05;96.07;99189.00;4991053;28;19921;-42
2023/06/07 04:05:56;;;;;;;;;;;;;;;24.10;100.00;99264.16;4992543;28;19976;-42
2023/06/07 04:08:21;;;;;;;;;;;;;;;24.38;100.00;99238.97;5000063;28;19917;-42
2023/06/07 04:10:46;;;;;;;;;;;;;;;25.57;100.00;99211.84;4984719;28;19993;-42
2023/06/07 04:13:11;;;;;;;;;;;;;;;26.29;99.17;99196.41;4999669;28;20402;-42
2023/06/07 04:15:37;;;;;;;;;;;;;;;26.26;98.10;99205.47;4999104;28;20418;-42
2023/06/07 04:18:02;;;;;;;;;;;;;;;25.59;100.00;99238.91;4986006;28;20397;-42
2023/06/07 04:20:27;;;;;;;;;;;;;;;25.46;99.62;99220.72;5000071;28;19917;-42
2023/06/07 04:22:52;;;;;;;;;;;;;;;25.51;98.95;99214.19;4992105;28;19918;-42
2023/06/07 04:25:24;;;;;;;;;;;;;;;25.99;99.08;99208.06;4986819;28;20371;-42
2023/06/07 04:27:49;;;;;;;;;;;;;;;24.86;100.00;99234.88;5001139;28;20000;-42
2023/06/07 04:30:18;;;;;;;;;;;;;;;25.62;100.00;99221.97;4987436;28;19922;-42
2023/06/07 04:32:46;;;;;;;;;;;;;;;25.85;100.00;99206.66;4991115;28;19917;-42
2023/06/07 04:35:14;;;;;;;;;;;;;;;26.04;99.48;99211.09;4993655;28;19918;-42
2023/06/07 04:37:39;;;;;;;;;;;;;;;24.77;100.00;99247.03;4990757;28;20394;-42
2023/06/07 04:40:05;;;;;;;;;;;;;;;24.55;100.00;99243.66;4992984;28;19917;-42
2023/06/07 04:42:31;;;;;;;;;;;;;;;25.46;100.00;99231.25;4986466;28;19918;-42
2023/06/07 04:45:00;;;;;;;;;;;;;;;24.85;100.00;99239.31;4994095;28;19936;-42
2023/06/07 04:47:27;;;;;;;;;;;;;;;24.59;100.00;99247.69;4999547;28;19921;-42
2023/06/07 04:49:53;;;;;;;;;;;;;;;25.87;100.00;99221.41;4990294;28;19917;-42
2023/06/07 04:52:19;;;;;;;;;;;;;;;25.27;100.00;99233.88;4993092;28;20485;-42
2023/06/07 04:54:46;;;;;;;;;;;;;;;24.41;100.00;99270.31;4994640;28;20355;-42
2023/06/07 04:57:12;;;;;;;;;;;;;;;25.73;100.00;99213.91;4990460;28;20047;-42
2023/06/07 04:59:42;;;;;;;;;;;;;;;25.97;100.00;99210.00;4994108;28;19948;-42
2023/06/07 05:02:08;;;;;;;;;;;;;;;24.33;100.00;99275.38;4990015;28;19917;-42
2023/06/07 05:04:33;;;;;;;;;;;;;;;23.24;100.00;99282.53;4985734;28;19922;-42
2023/06/07 05:06:58;;;;;;;;;;;;;;;23.12;100.00;99283.50;5001287;28;20286;-42
2023/06/07 05:09:24;;;;;;;;;;;;;;;24.00;100.00;99248.31;4987551;28;20562;-42
2023/06/07 05:11:49;;;;;;;;;;;;;;;25.28;100.00;99232.09;4989263;28;19917;-42
2023/06/07 05:14:14;;;;;;;;;;;;;;;25.56;100.00;99227.78;4989915;28;20191;-42
2023/06/07 05:16:43;;;;;;;;;;;;;;;25.40;100.00;99229.16;4989736;28;20049;-42
2023/06/07 05:19:10;;;;;;;;;;;;;;;25.35;100.00;99241.13;4995479;28;19917;-42
2023/06/07 05:21:36;;;;;;;;;;;;;;;25.28;100.00;99261.91;4990332;28;19921;-42
2023/06/07 05:24:01;;;;;;;;;;;;;;;24.52;100.00;99270.25;4992940;28;19924;-42
2023/06/07 05:26:27;;;;;;;;;;;;;;;24.99;100.00;99256.56;4984950;28;19926;-42
2023/06/07 05:28:52;;;;;;;;;;;;;;;23.79;100.00;99288.59;4986779;28;19919;-42
2023/06/07 05:31:18;;;;;;;;;;;;;;;23.60;100.00;99293.66;4986495;28;19918;-42
2023/06/07 05:33:44;;;;;;;;;;;;;;;24.07;100.00;99278.41;4986746;28;20405;-42
2023/06/07 05:36:11;;;;;;;;;;;;;;;24.15;100.00;99283.88;4983500;28;19918;-42
2023/06/07 05:38:36;;;;;;;;;;;;;;;24.89;100.00;99256.53;4984987;28;19988;-41
2023/06/07 05:41:01;;;;;;;;;;;;;;;25.07;100.00;99248.00;4992112;28;20401;-41
2023/06/07 05:43:27;;;;;;;;;;;;;;;23.16;100.00;99300.69;4991844;28;20025;-42
2023/06/07 05:45:52;;;;;;;;;;;;;;;23.80;100.00;99294.69;4991623;28;19972;-42
2023/06/07 05:48:18;;;;;;;;;;;;;;;23.19;100.00;99289.94;4988397;28;20275;-42
2023/06/07 05:50:43;;;;;;;;;;;;;;;24.34;100.00;99277.88;4992007;28;19949;-42
2023/06/07 05:53:08;;;;;;;;;;;;;;;24.87;100.00;99253.19;4992227;28;21156;-42
2023/06/07 05:55:33;;;;;;;;;;;;;;;24.49;100.00;99270.50;4984454;28;19936;-42
2023/06/07 05:58:00;;;;;;;;;;;;;;;25.48;100.00;99246.09;4992411;28;19917;-42
2023/06/07 06:00:25;;;;;;;;;;;;;;;24.12;100.00;99273.59;4995144;28;20067;-42
2023/06/07 06:02:52;;;;;;;;;;;;;;;25.39;100.00;99232.78;4992393;28;20602;-42
2023/06/07 06:05:18;;;;;;;;;;;;;;;25.46;100.00;99228.63;4999871;28;19918;-42
2023/06/07 06:07:43;;;;;;;;;;;;;;;25.86;100.00;99230.28;4989486;28;20059;-42
2023/06/07 06:10:08;;;;;;;;;;;;;;;26.01;100.00;99219.31;4986835;28;20758;-42
2023/06/07 06:12:34;;;;;;;;;;;;;;;25.69;100.00;99243.34;4999102;28;19929;-42
2023/06/07 06:14:59;;;;;;;;;;;;;;;26.11;100.00;99222.72;4992448;28;20297;-42
2023/06/07 06:17:25;;;;;;;;;;;;;;;26.35;100.00;99214.34;4985833;28;19922;-42
2023/06/07 06:19:50;;;;;;;;;;;;;;;25.28;100.00;99251.38;4992413;28;20391;-42
2023/06/07 06:22:15;;;;;;;;;;;;;;;25.70;100.00;99242.34;4983676;28;20008;-42
2023/06/07 06:24:41;;;;;;;;;;;;;;;26.13;100.00;99235.78;4994149;28;19971;-42
2023/06/07 06:27:06;;;;;;;;;;;;;;;26.14;100.00;99238.31;4983278;28;19914;-42
2023/06/07 06:29:31;;;;;;;;;;;;;;;25.74;100.00;99247.22;4984556;28;20400;-41
2023/06/07 06:31:57;;;;;;;;;;;;;;;25.90;100.00;99245.84;4992453;28;19922;-42
2023/06/07 06:34:23;;;;;;;;;;;;;;;25.78;100.00;99259.16;4985761;28;19922;-42
2023/06/07 06:36:48;;;;;;;;;;;;;;;25.90;100.00;99251.94;4984076;28;19918;-42
2023/06/07 06:39:14;;;;;;;;;;;;;;;25.71;100.00;99252.78;4991474;28;19918;-42
2023/06/07 06:41:39;;;;;;;;;;;;;;;24.77;100.00;99279.50;4986521;28;19917;-42
2023/06/07 06:44:04;;;;;;;;;;;;;;;25.23;100.00;99285.22;4990688;28;19929;-41
2023/06/07 06:46:29;;;;;;;;;;;;;;;25.72;100.00;99266.78;4987239;28;19917;-41
2023/06/07 06:48:54;;;;;;;;;;;;;;;25.72;100.00;99272.91;4990336;28;20096;-41
2023/06/07 06:51:20;;;;;;;;;;;;;;;25.53;100.00;99272.91;4994310;28;19992;-42
2023/06/07 06:53:45;;;;;;;;;;;;;;;24.05;100.00;99314.53;4985077;28;20111;-42
2023/06/07 06:56:11;;;;;;;;;;;;;;;24.23;100.00;99311.34;4990310;28;19925;-42
2023/06/07 06:58:36;;;;;;;;;;;;;;;25.45;100.00;99278.84;4981539;28;19921;-41
2023/06/07 07:01:02;;;;;;;;;;;;;;;25.63;100.00;99271.09;4992084;28;19917;-42
2023/06/07 07:03:27;;;;;;;;;;;;;;;25.94;100.00;99263.06;4985138;28;19926;-42
2023/06/07 07:05:53;;;;;;;;;;;;;;;25.92;100.00;99265.84;4985653;28;19980;-41
2023/06/07 07:08:18;;;;;;;;;;;;;;;25.37;100.00;99290.09;4987121;28;20659;-41
2023/06/07 07:10:43;;;;;;;;;;;;;;;26.00;100.00;99263.34;4986338;28;20377;-41
2023/06/07 07:13:08;;;;;;;;;;;;;;;25.53;100.00;99280.81;4985073;28;19972;-41
2023/06/07 07:15:34;;;;;;;;;;;;;;;26.14;100.00;99256.78;4991570;28;20381;-41
2023/06/07 07:18:00;;;;;;;;;;;;;;;26.41;100.00;99263.94;4982322;28;19917;-41
2023/06/07 07:20:25;;;;;;;;;;;;;;;25.05;100.00;99299.00;4988033;28;20036;-42
2023/06/07 07:22:51;;;;;;;;;;;;;;;25.75;100.00;99283.19;4986443;28;19917;-41
2023/06/07 07:25:16;;;;;;;;;;;;;;;25.95;100.00;99275.28;4989235;28;20012;-41
2023/06/07 07:27:42;;;;;;;;;;;;;;;25.48;100.00;99298.84;4987123;28;20072;-41
2023/06/07 07:30:09;;;;;;;;;;;;;;;25.72;100.00;99296.63;4993974;28;19918;-41
2023/06/07 07:32:34;;;;;;;;;;;;;;;23.03;100.00;99352.53;4989521;28;19921;-42
2023/06/07 07:35:00;;;;;;;;;;;;;;;24.99;100.00;99315.34;4991595;28;20050;-41
2023/06/07 07:37:28;;;;;;;;;;;;;;;26.03;100.00;99285.97;4995609;28;20605;-41
2023/06/07 07:39:53;;;;;;;;;;;;;;;25.56;100.00;99296.34;4986726;28;19914;-42
2023/06/07 07:42:18;;;;;;;;;;;;;;;24.73;100.00;99319.41;4982529;28;19921;-42
2023/06/07 07:44:44;;;;;;;;;;;;;;;24.00;100.00;99343.03;4987623;28;19930;-42
2023/06/07 07:47:10;;;;;;;;;;;;;;;22.52;100.00;99359.84;4984302;28;19968;-42
2023/06/07 07:49:35;;;;;;;;;;;;;;;23.99;100.00;99326.41;4994982;28;20068;-42
2023/06/07 07:52:01;;;;;;;;;;;;;;;24.52;100.00;99317.66;4983539;28;20004;-42
2023/06/07 07:54:27;;;;;;;;;;;;;;;24.59;100.00;99324.06;4986307;28;20670;-42
2023/06/07 07:56:52;;;;;;;;;;;;;;;24.81;100.00;99311.66;4984731;28;19941;-42
2023/06/07 07:59:17;;;;;;;;;;;;;;;24.24;100.00;99334.06;4986416;28;20358;-42
2023/06/07 08:01:45;;;;;;;;;;;;;;;23.19;100.00;99366.13;4987234;28;19926;-42
2023/06/07 08:04:10;;;;;;;;;;;;;;;24.04;100.00;99354.13;4987753;28;19973;-42
2023/06/07 08:06:35;;;;;;;;;;;;;;;24.48;100.00;99341.75;4987537;28;20399;-42
2023/06/07 08:09:02;;;;;;;;;;;;;;;24.89;100.00;99330.31;4983712;28;20413;-42
2023/06/07 08:11:27;;;;;;;;;;;;;;;24.28;100.00;99330.22;4993340;28;19917;-42
2023/06/07 08:13:53;;;;;;;;;;;;;;;24.62;100.00;99334.31;4997084;28;19925;-42
2023/06/07 08:16:18;;;;;;;;;;;;;;;23.84;100.00;99334.75;4986914;28;20387;-42
2023/06/07 08:18:49;;;;;;;;;;;;;;;22.90;100.00;99353.47;4988993;28;20389;-42
2023/06/07 08:21:14;;;;;;;;;;;;;;;24.27;100.00;99323.25;4990927;28;19928;-42
2023/06/07 08:23:41;;;;;;;;;;;;;;;24.43;100.00;99329.75;4993989;28;19913;-42
2023/06/07 08:26:06;;;;;;;;;;;;;;;24.19;100.00;99327.38;4997241;28;20349;-42
2023/06/07 08:28:31;;;;;;;;;;;;;;;25.08;100.00;99323.44;4991448;28;19922;-42
2023/06/07 08:30:56;;;;;;;;;;;;;;;24.35;100.00;99336.63;4997208;28;19926;-42
2023/06/07 08:33:21;;;;;;;;;;;;;;;24.28;100.00;99343.38;4995112;28;19932;-42
2023/06/07 08:35:47;;;;;;;;;;;;;;;24.97;100.00;99327.00;4989086;28;19926;-42
2023/06/07 08:38:12;;;;;;;;;;;;;;;23.69;100.00;99345.50;4992955;28;19921;-42
2023/06/07 08:40:37;;;;;;;;;;;;;;;23.21;100.00;99366.84;4992988;28;20011;-42
2023/06/07 08:43:03;;;;;;;;;;;;;;;22.71;100.00;99379.47;4992919;28;20048;-42
2023/06/07 08:45:28;;;;;;;;;;;;;;;23.52;100.00;99359.19;4997692;28;20000;-42
2023/06/07 08:47:53;;;;;;;;;;;;;;;24.06;100.00;99355.66;4992142;28;20067;-42
2023/06/07 08:50:18;;;;;;;;;;;;;;;23.56;100.00;99347.44;5001554;28;20016;-42
2023/06/07 08:52:47;;;;;;;;;;;;;;;23.17;100.00;99370.66;4982975;28;19933;-42
2023/06/07 08:55:13;;;;;;;;;;;;;;;22.71;100.00;99368.97;4987448;28;19921;-42
2023/06/07 08:57:39;;;;;;;;;;;;;;;22.82;100.00;99371.59;4994568;28;20403;-42
2023/06/07 09:00:06;;;;;;;;;;;;;;;24.32;100.00;99347.44;4990134;28;20407;-42
2023/06/07 09:02:32;;;;;;;;;;;;;;;24.66;100.00;99349.88;4993130;28;20069;-42
2023/06/07 09:04:57;;;;;;;;;;;;;;;23.44;100.00;99372.91;5000319;28;19929;-42
2023/06/07 09:07:22;;;;;;;;;;;;;;;23.99;100.00;99355.38;4984419;28;19984;-42
2023/06/07 09:09:47;;;;;;;;;;;;;;;24.92;100.00;99340.56;4996142;28;19996;-42
2023/06/07 09:12:13;;;;;;;;;;;;;;;26.12;100.00;99314.16;4984846;28;19953;-42
2023/06/07 09:14:38;;;;;;;;;;;;;;;23.30;100.00;99371.38;4988492;28;19977;-42
2023/06/07 09:17:03;;;;;;;;;;;;;;;22.97;100.00;99375.69;4991744;28;19918;-42
2023/06/07 09:19:29;;;;;;;;;;;;;;;24.00;100.00;99364.09;4994550;28;19964;-42
2023/06/07 09:21:55;;;;;;;;;;;;;;;24.39;100.00;99328.34;4992109;28;19921;-42
2023/06/07 09:24:25;;;;;;;;;;;;;;;24.58;100.00;99327.66;4992316;28;19928;-42
2023/06/07 09:26:50;;;;;;;;;;;;;;;24.76;100.00;99319.97;4988089;28;19917;-42
2023/06/07 09:29:15;;;;;;;;;;;;;;;26.44;100.00;99287.41;4995661;28;20159;-42
2023/06/07 09:31:41;;;;;;;;;;;;;;;26.54;100.00;99282.09;4990892;28;19913;-43
2023/06/07 09:34:20;;;;;;;;;;;;;;;26.03;100.00;99299.16;4986481;28;19984;-43
2023/06/07 09:36:52;;;;;;;;;;;;;;;26.00;100.00;99299.44;4990717;28;19937;-43
2023/06/07 09:39:22;;;;;;;;;;;;;;;24.46;100.00;99339.19;4989362;28;20287;-43
2023/06/07 09:41:48;;;;;;;;;;;;;;;25.23;100.00;99340.56;4997061;28;19918;-43
2023/06/07 09:44:20;;;;;;;;;;;;;;;25.41;100.00;99338.13;4991251;28;20303;-43
2023/06/07 09:46:45;;;;;;;;;;;;;;;26.25;100.00;99325.25;4992987;28;19921;-42
2023/06/07 09:49:10;;;;;;;;;;;;;;;25.83;100.00;99325.53;4994603;28;20572;-42
2023/06/07 09:51:39;;;;;;;;;;;;;;;26.54;100.00;99319.06;4986138;28;20382;-43
2023/06/07 09:54:06;;;;;;;;;;;;;;;26.52;100.00;99325.47;4995908;28;19925;-42
2023/06/07 09:56:31;;;;;;;;;;;;;;;25.36;100.00;99346.44;4986438;28;19945;-42
2023/06/07 09:59:06;;;;;;;;;;;;;;;26.53;100.00;99314.78;4987181;28;20271;-42
2023/06/07 10:01:33;;;;;;;;;;;;;;;24.56;100.00;99360.34;4992475;28;19920;-42
2023/06/07 10:03:59;;;;;;;;;;;;;;;25.18;100.00;99364.69;4985301;28;20417;-42
2023/06/07 10:06:24;;;;;;;;;;;;;;;24.65;100.00;99372.72;4984209;28;20283;-42
2023/06/07 10:08:50;;;;;;;;;;;;;;;25.30;100.00;99368.06;4986001;28;19918;-42
2023/06/07 10:11:16;;;;;;;;;;;;;;;25.21;100.00;99360.97;4988302;28;19922;-42
2023/06/07 10:13:41;;;;;;;;;;;;;;;24.60;100.00;99367.84;4993520;28;20390;-42
2023/06/07 10:16:09;;;;;;;;;;;;;;;24.41;100.00;99371.16;4990910;28;19922;-42
2023/06/07 10:18:34;;;;;;;;;;;;;;;25.33;100.00;99362.50;4983368;28;19918;-42
2023/06/07 10:21:06;;;;;;;;;;;;;;;26.13;100.00;99336.94;4987303;28;20644;-42
2023/06/07 10:23:37;;;;;;;;;;;;;;;25.41;100.00;99367.13;4991241;28;19976;-42
2023/06/07 10:26:10;;;;;;;;;;;;;;;24.17;100.00;99392.47;4993788;28;20012;-42
2023/06/07 10:28:40;;;;;;;;;;;;;;;25.04;100.00;99365.88;4979464;28;19918;-42
2023/06/07 10:31:08;;;;;;;;;;;;;;;25.32;100.00;99363.50;4993433;28;20784;-42
2023/06/07 10:33:34;;;;;;;;;;;;;;;25.38;100.00;99352.38;4985490;28;20367;-42
2023/06/07 10:35:59;;;;;;;;;;;;;;;27.11;100.00;99330.41;4984977;28;19923;-42
2023/06/07 10:38:24;;;;;;;;;;;;;;;24.49;100.00;99351.28;4993679;28;19940;-43
2023/06/07 10:40:50;;;;;;;;;;;;;;;25.70;100.00;99351.34;4987067;28;19987;-42
2023/06/07 10:43:15;;;;;;;;;;;;;;;26.73;100.00;99334.06;4983843;28;19932;-47
2023/06/07 10:45:41;;;;;;;;;;;;;;;25.43;100.00;99344.94;4987153;28;20017;-42
2023/06/07 10:48:25;;;;;;;;;;;;;;;25.87;100.00;99349.88;4987128;28;20045;-43
2023/06/07 10:50:50;;;;;;;;;;;;;;;26.05;100.00;99339.47;4989103;28;19925;-43
2023/06/07 10:53:15;;;;;;;;;;;;;;;27.98;100.00;99282.38;4988275;28;20778;-42
2023/06/07 10:55:40;;;;;;;;;;;;;;;26.56;100.00;99301.28;4984596;28;19918;-43
2023/06/07 10:58:24;;;;;;;;;;;;;;;26.67;100.00;99309.03;4991670;28;19929;-43
2023/06/07 11:00:49;;;;;;;;;;;;;;;25.63;100.00;99326.47;4982925;28;20020;-43
2023/06/07 11:03:21;;;;;;;;;;;;;;;26.22;100.00;99303.56;4984229;28;20096;-42
2023/06/07 11:05:58;;;;;;;;;;;;;;;26.45;100.00;99322.56;4989034;28;19926;-43
2023/06/07 11:08:30;;;;;;;;;;;;;;;27.21;100.00;99279.31;4986431;28;20584;-43
2023/06/07 11:11:00;;;;;;;;;;;;;;;25.86;100.00;99329.69;4989723;28;20117;-43
2023/06/07 11:13:47;;;;;;;;;;;;;;;25.81;100.00;99337.19;4990504;28;20504;-43
2023/06/07 11:16:24;;;;;;;;;;;;;;;26.70;100.00;99286.78;4983333;28;20583;-43
2023/06/07 11:18:56;;;;;;;;;;;;;;;27.80;100.00;99269.94;4986602;28;20004;-43
2023/06/07 11:21:21;;;;;;;;;;;;;;;27.48;100.00;99267.84;4984363;28;19917;-43
2023/06/07 11:24:06;;;;;;;;;;;;;;;26.63;100.00;99302.38;4989083;28;20342;-43
2023/06/07 11:26:34;;;;;;;;;;;;;;;26.98;100.00;99290.28;4991818;28;19921;-43
2023/06/07 11:29:00;;;;;;;;;;;;;;;26.44;100.00;99282.13;4980672;28;20035;-43
2023/06/07 11:31:25;;;;;;;;;;;;;;;27.70;100.00;99253.34;4987357;28;19941;-43
2023/06/07 11:33:51;;;;;;;;;;;;;;;26.88;100.00;99269.16;4983502;28;19932;-43
2023/06/07 11:36:16;;;;;;;;;;;;;;;29.34;100.00;99230.38;4990777;28;19921;-43
2023/06/07 11:38:42;;;;;;;;;;;;;;;29.03;100.00;99216.84;4983551;28;19920;-43
2023/06/07 11:41:07;;;;;;;;;;;;;;;27.79;100.00;99247.13;4985600;28;19918;-43
2023/06/07 11:43:32;;;;;;;;;;;;;;;27.22;100.00;99258.03;4983569;28;19945;-43
2023/06/07 11:45:58;;;;;;;;;;;;;;;28.24;100.00;99250.63;4984198;28;19921;-43
2023/06/07 11:48:29;;;;;;;;;;;;;;;28.46;100.00;99233.34;4988245;28;19941;-43
2023/06/07 11:50:54;;;;;;;;;;;;;;;29.20;100.00;99218.59;4994727;28;19957;-43
2023/06/07 11:53:21;;;;;;;;;;;;;;;29.63;100.00;99221.06;4989203;28;19953;-43
2023/06/07 11:55:46;;;;;;;;;;;;;;;29.63;100.00;99210.47;4987919;28;20562;-43
2023/06/07 11:58:12;;;;;;;;;;;;;;;29.50;100.00;99210.97;4988827;28;19922;-43
2023/06/07 12:00:37;;;;;;;;;;;;;;;28.44;100.00;99237.97;4990349;28;19972;-43
2023/06/07 12:03:03;;;;;;;;;;;;;;;30.06;100.00;99209.31;5002046;28;20302;-43
2023/06/07 12:05:31;;;;;;;;;;;;;;;28.73;100.00;99237.63;4993260;28;20864;-43
2023/06/07 12:08:07;;;;;;;;;;;;;;;30.35;100.00;99207.91;4994816;28;19929;-43
2023/06/07 12:10:33;;;;;;;;;;;;;;;28.21;100.00;99222.63;4993133;28;19924;-43
2023/06/07 12:13:18;;;;;;;;;;;;;;;28.34;100.00;99217.72;4993350;28;19913;-43
2023/06/07 12:15:53;;;;;;;;;;;;;;;27.95;100.00;99225.28;4992327;28;19918;-43
2023/06/07 12:18:19;;;;;;;;;;;;;;;29.19;100.00;99204.50;4991544;28;20028;-43
2023/06/07 12:20:46;;;;;;;;;;;;;;;26.73;100.00;99248.66;5000143;28;20260;-43
2023/06/07 12:23:12;;;;;;;;;;;;;;;27.81;100.00;99218.69;4992782;28;20502;-43
2023/06/07 12:25:41;;;;;;;;;;;;;;;25.79;100.00;99268.72;4994423;28;20060;-43
2023/06/07 12:28:08;;;;;;;;;;;;;;;26.98;100.00;99241.84;4990081;28;19917;-43
2023/06/07 12:30:34;;;;;;;;;;;;;;;28.57;100.00;99219.84;4987324;28;19971;-42
2023/06/07 12:33:00;;;;;;;;;;;;;;;27.44;100.00;99238.25;4988168;28;20378;-42
2023/06/07 12:35:28;;;;;;;;;;;;;;;28.20;100.00;99223.63;4995846;28;19925;-42
2023/06/07 12:37:54;;;;;;;;;;;;;;;28.71;100.00;99227.19;4991759;28;20421;-42